sensor_id;sensor_type;location;lat;lon;timestamp;P1;durP1;ratioP1;P2;durP2;ratioP2
71091;SDS011;58751;50.708;7.134;2024-01-15T00:02:12;15.47;;;9.67;;
71091;SDS011;58751;50.708;7.134;2024-01-15T00:04:37;21.33;;;10.53;;
71091;SDS011;58751;50.708;7.134;2024-01-15T00:07:03;15.63;;;9.67;;
71091;SDS011;58751;50.708;7.134;2024-01-15T00:09:28;14.47;;;10.00;;
71091;SDS011;58751;50.708;7.134;2024-01-15T00:11:54;12.10;;;8.83;;
71091;SDS011;58751;50.708;7.134;2024-01-15T00:14:20;14.70;;;9.37;;
71091;SDS011;58751;50.708;7.134;2024-01-15T00:16:46;13.63;;;8.63;;
71091;SDS011;58751;50.708;7.134;2024-01-15T00:19:11;18.93;;;9.83;;
71091;SDS011;58751;50.708;7.134;2024-01-15T00:21:37;15.10;;;9.27;;
71091;SDS011;58751;50.708;7.134;2024-01-15T00:24:02;13.07;;;8.67;;
71091;SDS011;58751;50.708;7.134;2024-01-15T00:26:28;15.27;;;8.70;;
71091;SDS011;58751;50.708;7.134;2024-01-15T00:28:54;24.00;;;11.27;;
71091;SDS011;58751;50.708;7.134;2024-01-15T00:31:20;15.40;;;10.17;;
71091;SDS011;58751;50.708;7.134;2024-01-15T00:33:46;15.85;;;9.52;;
71091;SDS011;58751;50.708;7.134;2024-01-15T00:36:11;15.50;;;9.40;;
71091;SDS011;58751;50.708;7.134;2024-01-15T00:38:36;13.23;;;8.93;;
71091;SDS011;58751;50.708;7.134;2024-01-15T00:41:02;16.10;;;9.57;;
71091;SDS011;58751;50.708;7.134;2024-01-15T00:43:27;19.67;;;9.70;;
71091;SDS011;58751;50.708;7.134;2024-01-15T00:45:53;19.97;;;10.00;;
71091;SDS011;58751;50.708;7.134;2024-01-15T00:48:20;18.40;;;10.13;;
71091;SDS011;58751;50.708;7.134;2024-01-15T00:50:45;21.00;;;10.80;;
71091;SDS011;58751;50.708;7.134;2024-01-15T00:53:10;15.67;;;9.70;;
71091;SDS011;58751;50.708;7.134;2024-01-15T00:55:36;16.93;;;10.37;;
71091;SDS011;58751;50.708;7.134;2024-01-15T00:58:01;27.13;;;11.60;;
71091;SDS011;58751;50.708;7.134;2024-01-15T01:00:27;19.30;;;11.83;;
71091;SDS011;58751;50.708;7.134;2024-01-15T01:02:52;23.27;;;11.40;;
71091;SDS011;58751;50.708;7.134;2024-01-15T01:05:19;18.20;;;10.37;;
71091;SDS011;58751;50.708;7.134;2024-01-15T01:07:44;18.92;;;10.85;;
71091;SDS011;58751;50.708;7.134;2024-01-15T01:10:09;19.20;;;11.23;;
71091;SDS011;58751;50.708;7.134;2024-01-15T01:12:35;20.23;;;11.13;;
71091;SDS011;58751;50.708;7.134;2024-01-15T01:15:00;18.80;;;11.43;;
71091;SDS011;58751;50.708;7.134;2024-01-15T01:17:26;17.37;;;10.33;;
71091;SDS011;58751;50.708;7.134;2024-01-15T01:19:51;14.90;;;9.67;;
71091;SDS011;58751;50.708;7.134;2024-01-15T01:22:18;19.03;;;12.63;;
71091;SDS011;58751;50.708;7.134;2024-01-15T01:24:43;13.73;;;9.70;;
71091;SDS011;58751;50.708;7.134;2024-01-15T01:27:09;16.70;;;10.67;;
71091;SDS011;58751;50.708;7.134;2024-01-15T01:29:34;18.43;;;10.87;;
71091;SDS011;58751;50.708;7.134;2024-01-15T01:32:00;19.43;;;11.40;;
71091;SDS011;58751;50.708;7.134;2024-01-15T01:34:25;20.50;;;11.83;;
71091;SDS011;58751;50.708;7.134;2024-01-15T01:36:51;16.30;;;11.30;;
71091;SDS011;58751;50.708;7.134;2024-01-15T01:39:17;17.07;;;10.80;;
71091;SDS011;58751;50.708;7.134;2024-01-15T01:41:43;19.00;;;10.48;;
71091;SDS011;58751;50.708;7.134;2024-01-15T01:44:08;16.50;;;11.40;;
71091;SDS011;58751;50.708;7.134;2024-01-15T01:46:33;19.77;;;12.23;;
71091;SDS011;58751;50.708;7.134;2024-01-15T01:49:00;22.40;;;12.25;;
71091;SDS011;58751;50.708;7.134;2024-01-15T01:51:25;23.03;;;12.10;;
71091;SDS011;58751;50.708;7.134;2024-01-15T01:53:51;17.80;;;12.07;;
71091;SDS011;58751;50.708;7.134;2024-01-15T01:56:18;16.67;;;11.03;;
71091;SDS011;58751;50.708;7.134;2024-01-15T01:58:43;18.60;;;12.85;;
71091;SDS011;58751;50.708;7.134;2024-01-15T02:01:09;21.27;;;11.70;;
71091;SDS011;58751;50.708;7.134;2024-01-15T02:03:35;17.42;;;11.63;;
71091;SDS011;58751;50.708;7.134;2024-01-15T02:06:01;19.10;;;12.73;;
71091;SDS011;58751;50.708;7.134;2024-01-15T02:08:26;22.47;;;13.70;;
71091;SDS011;58751;50.708;7.134;2024-01-15T02:10:51;19.60;;;11.57;;
71091;SDS011;58751;50.708;7.134;2024-01-15T02:13:18;22.30;;;11.97;;
71091;SDS011;58751;50.708;7.134;2024-01-15T02:15:44;25.60;;;13.15;;
71091;SDS011;58751;50.708;7.134;2024-01-15T02:18:09;18.83;;;11.53;;
71091;SDS011;58751;50.708;7.134;2024-01-15T02:20:35;17.80;;;11.87;;
71091;SDS011;58751;50.708;7.134;2024-01-15T02:23:04;18.73;;;12.57;;
71091;SDS011;58751;50.708;7.134;2024-01-15T02:25:32;19.70;;;12.20;;
71091;SDS011;58751;50.708;7.134;2024-01-15T02:27:57;25.10;;;13.90;;
71091;SDS011;58751;50.708;7.134;2024-01-15T02:30:23;18.90;;;12.53;;
71091;SDS011;58751;50.708;7.134;2024-01-15T02:32:49;19.88;;;12.55;;
71091;SDS011;58751;50.708;7.134;2024-01-15T02:35:15;18.20;;;12.40;;
71091;SDS011;58751;50.708;7.134;2024-01-15T02:37:40;15.87;;;11.77;;
71091;SDS011;58751;50.708;7.134;2024-01-15T02:40:07;22.50;;;13.83;;
71091;SDS011;58751;50.708;7.134;2024-01-15T02:42:33;19.75;;;13.35;;
71091;SDS011;58751;50.708;7.134;2024-01-15T02:44:59;18.60;;;12.67;;
71091;SDS011;58751;50.708;7.134;2024-01-15T02:47:24;26.97;;;14.83;;
71091;SDS011;58751;50.708;7.134;2024-01-15T02:49:50;23.53;;;13.33;;
71091;SDS011;58751;50.708;7.134;2024-01-15T02:52:15;19.37;;;13.03;;
71091;SDS011;58751;50.708;7.134;2024-01-15T02:54:40;20.70;;;13.00;;
71091;SDS011;58751;50.708;7.134;2024-01-15T02:57:07;24.53;;;13.03;;
71091;SDS011;58751;50.708;7.134;2024-01-15T02:59:32;21.85;;;13.90;;
71091;SDS011;58751;50.708;7.134;2024-01-15T03:01:58;23.53;;;14.93;;
71091;SDS011;58751;50.708;7.134;2024-01-15T03:04:23;25.50;;;15.33;;
71091;SDS011;58751;50.708;7.134;2024-01-15T03:06:49;18.87;;;13.23;;
71091;SDS011;58751;50.708;7.134;2024-01-15T03:09:14;22.97;;;13.07;;
71091;SDS011;58751;50.708;7.134;2024-01-15T03:11:39;26.73;;;14.47;;
71091;SDS011;58751;50.708;7.134;2024-01-15T03:14:07;20.95;;;14.88;;
71091;SDS011;58751;50.708;7.134;2024-01-15T03:16:32;18.95;;;12.70;;
71091;SDS011;58751;50.708;7.134;2024-01-15T03:18:58;22.23;;;13.20;;
71091;SDS011;58751;50.708;7.134;2024-01-15T03:21:23;19.90;;;13.03;;
71091;SDS011;58751;50.708;7.134;2024-01-15T03:23:48;20.07;;;13.13;;
71091;SDS011;58751;50.708;7.134;2024-01-15T03:26:14;19.33;;;12.90;;
71091;SDS011;58751;50.708;7.134;2024-01-15T03:28:39;24.30;;;14.13;;
71091;SDS011;58751;50.708;7.134;2024-01-15T03:31:06;22.00;;;13.13;;
71091;SDS011;58751;50.708;7.134;2024-01-15T03:33:32;16.60;;;12.82;;
71091;SDS011;58751;50.708;7.134;2024-01-15T03:35:58;24.43;;;13.07;;
71091;SDS011;58751;50.708;7.134;2024-01-15T03:38:23;18.30;;;12.23;;
71091;SDS011;58751;50.708;7.134;2024-01-15T03:40:49;17.70;;;12.70;;
71091;SDS011;58751;50.708;7.134;2024-01-15T03:43:14;17.77;;;12.47;;
71091;SDS011;58751;50.708;7.134;2024-01-15T03:45:39;21.07;;;12.10;;
71091;SDS011;58751;50.708;7.134;2024-01-15T03:48:06;17.80;;;11.87;;
71091;SDS011;58751;50.708;7.134;2024-01-15T03:50:32;21.08;;;12.77;;
71091;SDS011;58751;50.708;7.134;2024-01-15T03:52:57;18.00;;;12.67;;
71091;SDS011;58751;50.708;7.134;2024-01-15T03:55:23;24.27;;;13.43;;
71091;SDS011;58751;50.708;7.134;2024-01-15T03:57:48;21.60;;;14.07;;
71091;SDS011;58751;50.708;7.134;2024-01-15T04:00:14;18.83;;;12.53;;
71091;SDS011;58751;50.708;7.134;2024-01-15T04:02:40;18.50;;;12.48;;
71091;SDS011;58751;50.708;7.134;2024-01-15T04:05:07;12.97;;;9.93;;
71091;SDS011;58751;50.708;7.134;2024-01-15T04:07:32;19.45;;;11.93;;
71091;SDS011;58751;50.708;7.134;2024-01-15T04:09:57;17.93;;;13.20;;
71091;SDS011;58751;50.708;7.134;2024-01-15T04:12:23;15.47;;;11.77;;
71091;SDS011;58751;50.708;7.134;2024-01-15T04:14:48;20.00;;;12.50;;
71091;SDS011;58751;50.708;7.134;2024-01-15T04:17:14;18.07;;;12.27;;
71091;SDS011;58751;50.708;7.134;2024-01-15T04:19:39;17.40;;;11.33;;
71091;SDS011;58751;50.708;7.134;2024-01-15T04:22:06;14.53;;;11.27;;
71091;SDS011;58751;50.708;7.134;2024-01-15T04:24:31;15.23;;;11.35;;
71091;SDS011;58751;50.708;7.134;2024-01-15T04:26:57;15.53;;;11.03;;
71091;SDS011;58751;50.708;7.134;2024-01-15T04:29:22;19.00;;;12.60;;
71091;SDS011;58751;50.708;7.134;2024-01-15T04:31:48;18.37;;;12.17;;
71091;SDS011;58751;50.708;7.134;2024-01-15T04:34:13;17.23;;;11.20;;
71091;SDS011;58751;50.708;7.134;2024-01-15T04:36:39;16.77;;;11.00;;
71091;SDS011;58751;50.708;7.134;2024-01-15T04:39:05;13.87;;;10.63;;
71091;SDS011;58751;50.708;7.134;2024-01-15T04:41:31;17.58;;;10.13;;
71091;SDS011;58751;50.708;7.134;2024-01-15T04:43:56;18.60;;;11.00;;
71091;SDS011;58751;50.708;7.134;2024-01-15T04:46:22;19.07;;;11.50;;
71091;SDS011;58751;50.708;7.134;2024-01-15T04:48:47;18.27;;;11.00;;
71091;SDS011;58751;50.708;7.134;2024-01-15T04:51:12;13.60;;;10.63;;
71091;SDS011;58751;50.708;7.134;2024-01-15T04:53:38;15.33;;;10.53;;
71091;SDS011;58751;50.708;7.134;2024-01-15T04:56:05;15.40;;;10.53;;
71091;SDS011;58751;50.708;7.134;2024-01-15T04:58:30;15.60;;;10.43;;
71091;SDS011;58751;50.708;7.134;2024-01-15T05:00:56;14.17;;;9.67;;
71091;SDS011;58751;50.708;7.134;2024-01-15T05:03:21;14.77;;;9.90;;
71091;SDS011;58751;50.708;7.134;2024-01-15T05:05:47;13.10;;;9.80;;
71091;SDS011;58751;50.708;7.134;2024-01-15T05:08:12;16.63;;;11.20;;
71091;SDS011;58751;50.708;7.134;2024-01-15T05:10:37;18.47;;;9.93;;
71091;SDS011;58751;50.708;7.134;2024-01-15T05:13:04;13.57;;;10.10;;
71091;SDS011;58751;50.708;7.134;2024-01-15T05:15:29;14.27;;;10.18;;
71091;SDS011;58751;50.708;7.134;2024-01-15T05:17:55;14.30;;;10.10;;
71091;SDS011;58751;50.708;7.134;2024-01-15T05:20:20;12.83;;;9.80;;
71091;SDS011;58751;50.708;7.134;2024-01-15T05:22:46;13.13;;;9.70;;
71091;SDS011;58751;50.708;7.134;2024-01-15T05:25:12;14.77;;;10.93;;
71091;SDS011;58751;50.708;7.134;2024-01-15T05:27:37;16.00;;;9.43;;
71091;SDS011;58751;50.708;7.134;2024-01-15T05:30:04;13.03;;;9.90;;
71091;SDS011;58751;50.708;7.134;2024-01-15T05:32:31;11.68;;;9.57;;
71091;SDS011;58751;50.708;7.134;2024-01-15T05:34:57;14.98;;;9.93;;
71091;SDS011;58751;50.708;7.134;2024-01-15T05:37:22;15.97;;;10.87;;
71091;SDS011;58751;50.708;7.134;2024-01-15T05:39:47;13.20;;;9.47;;
71091;SDS011;58751;50.708;7.134;2024-01-15T05:42:13;16.47;;;10.13;;
71091;SDS011;58751;50.708;7.134;2024-01-15T05:44:38;13.67;;;9.70;;
71091;SDS011;58751;50.708;7.134;2024-01-15T05:47:05;13.67;;;9.73;;
71091;SDS011;58751;50.708;7.134;2024-01-15T05:49:30;15.68;;;10.32;;
71091;SDS011;58751;50.708;7.134;2024-01-15T05:51:56;20.70;;;11.93;;
71091;SDS011;58751;50.708;7.134;2024-01-15T05:54:21;14.60;;;10.13;;
71091;SDS011;58751;50.708;7.134;2024-01-15T05:56:46;17.20;;;11.73;;
71091;SDS011;58751;50.708;7.134;2024-01-15T05:59:12;13.40;;;10.57;;
71091;SDS011;58751;50.708;7.134;2024-01-15T06:01:37;15.73;;;9.90;;
71091;SDS011;58751;50.708;7.134;2024-01-15T06:04:04;16.67;;;10.60;;
71091;SDS011;58751;50.708;7.134;2024-01-15T06:06:30;16.88;;;11.15;;
71091;SDS011;58751;50.708;7.134;2024-01-15T06:08:55;12.60;;;9.70;;
71091;SDS011;58751;50.708;7.134;2024-01-15T06:11:21;15.65;;;9.63;;
71091;SDS011;58751;50.708;7.134;2024-01-15T06:13:47;16.70;;;11.67;;
71091;SDS011;58751;50.708;7.134;2024-01-15T06:16:13;18.83;;;10.40;;
71091;SDS011;58751;50.708;7.134;2024-01-15T06:18:39;14.95;;;10.70;;
71091;SDS011;58751;50.708;7.134;2024-01-15T06:21:06;12.97;;;10.07;;
71091;SDS011;58751;50.708;7.134;2024-01-15T06:23:31;17.42;;;11.20;;
71091;SDS011;58751;50.708;7.134;2024-01-15T06:25:56;10.90;;;8.30;;
71091;SDS011;58751;50.708;7.134;2024-01-15T06:28:22;15.10;;;9.63;;
71091;SDS011;58751;50.708;7.134;2024-01-15T06:30:47;15.50;;;10.27;;
71091;SDS011;58751;50.708;7.134;2024-01-15T06:33:13;16.83;;;9.80;;
71091;SDS011;58751;50.708;7.134;2024-01-15T06:35:39;15.23;;;11.30;;
71091;SDS011;58751;50.708;7.134;2024-01-15T06:38:05;17.20;;;10.23;;
71091;SDS011;58751;50.708;7.134;2024-01-15T06:40:31;14.52;;;10.02;;
71091;SDS011;58751;50.708;7.134;2024-01-15T06:42:57;15.43;;;9.33;;
71091;SDS011;58751;50.708;7.134;2024-01-15T06:45:22;16.73;;;10.73;;
71091;SDS011;58751;50.708;7.134;2024-01-15T06:47:47;17.10;;;10.77;;
71091;SDS011;58751;50.708;7.134;2024-01-15T06:50:13;17.03;;;10.17;;
71091;SDS011;58751;50.708;7.134;2024-01-15T06:52:38;17.57;;;11.20;;
71091;SDS011;58751;50.708;7.134;2024-01-15T06:55:06;15.83;;;11.10;;
71091;SDS011;58751;50.708;7.134;2024-01-15T06:57:32;13.48;;;8.73;;
71091;SDS011;58751;50.708;7.134;2024-01-15T06:59:57;17.23;;;10.97;;
71091;SDS011;58751;50.708;7.134;2024-01-15T07:02:22;16.50;;;12.17;;
71091;SDS011;58751;50.708;7.134;2024-01-15T07:04:48;14.43;;;9.53;;
71091;SDS011;58751;50.708;7.134;2024-01-15T07:07:13;16.10;;;12.00;;
71091;SDS011;58751;50.708;7.134;2024-01-15T07:09:39;21.60;;;11.97;;
71091;SDS011;58751;50.708;7.134;2024-01-15T07:12:05;16.53;;;12.53;;
71091;SDS011;58751;50.708;7.134;2024-01-15T07:14:31;16.08;;;10.73;;
71091;SDS011;58751;50.708;7.134;2024-01-15T07:16:56;19.40;;;12.23;;
71091;SDS011;58751;50.708;7.134;2024-01-15T07:19:22;16.43;;;11.50;;
71091;SDS011;58751;50.708;7.134;2024-01-15T07:21:47;15.87;;;11.80;;
71091;SDS011;58751;50.708;7.134;2024-01-15T07:24:13;19.70;;;11.83;;
71091;SDS011;58751;50.708;7.134;2024-01-15T07:26:38;19.70;;;11.80;;
71091;SDS011;58751;50.708;7.134;2024-01-15T07:29:05;21.87;;;11.00;;
71091;SDS011;58751;50.708;7.134;2024-01-15T07:31:31;17.15;;;10.68;;
71091;SDS011;58751;50.708;7.134;2024-01-15T07:33:56;16.57;;;10.70;;
71091;SDS011;58751;50.708;7.134;2024-01-15T07:36:21;17.37;;;10.60;;
71091;SDS011;58751;50.708;7.134;2024-01-15T07:38:47;15.03;;;10.37;;
71091;SDS011;58751;50.708;7.134;2024-01-15T07:41:13;19.17;;;10.10;;
71091;SDS011;58751;50.708;7.134;2024-01-15T07:43:38;13.43;;;10.10;;
71091;SDS011;58751;50.708;7.134;2024-01-15T07:46:05;15.27;;;10.47;;
71091;SDS011;58751;50.708;7.134;2024-01-15T07:48:31;22.95;;;10.00;;
71091;SDS011;58751;50.708;7.134;2024-01-15T07:50:56;13.17;;;9.87;;
71091;SDS011;58751;50.708;7.134;2024-01-15T07:53:22;22.10;;;10.10;;
71091;SDS011;58751;50.708;7.134;2024-01-15T07:55:47;16.30;;;10.17;;
71091;SDS011;58751;50.708;7.134;2024-01-15T07:58:13;15.53;;;10.20;;
71091;SDS011;58751;50.708;7.134;2024-01-15T08:00:38;12.80;;;9.40;;
71091;SDS011;58751;50.708;7.134;2024-01-15T08:03:05;15.93;;;9.90;;
71091;SDS011;58751;50.708;7.134;2024-01-15T08:05:31;20.33;;;10.43;;
71091;SDS011;58751;50.708;7.134;2024-01-15T08:07:56;17.30;;;9.43;;
71091;SDS011;58751;50.708;7.134;2024-01-15T08:10:22;13.87;;;8.33;;
71091;SDS011;58751;50.708;7.134;2024-01-15T08:12:47;15.90;;;9.83;;
71091;SDS011;58751;50.708;7.134;2024-01-15T08:15:13;17.40;;;11.00;;
71091;SDS011;58751;50.708;7.134;2024-01-15T08:17:38;16.07;;;8.67;;
71091;SDS011;58751;50.708;7.134;2024-01-15T08:20:06;11.23;;;8.20;;
71091;SDS011;58751;50.708;7.134;2024-01-15T08:22:31;15.43;;;9.27;;
71091;SDS011;58751;50.708;7.134;2024-01-15T08:24:57;13.30;;;9.17;;
71091;SDS011;58751;50.708;7.134;2024-01-15T08:27:22;16.33;;;8.60;;
71091;SDS011;58751;50.708;7.134;2024-01-15T08:29:48;16.23;;;9.00;;
71091;SDS011;58751;50.708;7.134;2024-01-15T08:32:13;16.27;;;8.57;;
71091;SDS011;58751;50.708;7.134;2024-01-15T08:34:38;13.17;;;8.60;;
71091;SDS011;58751;50.708;7.134;2024-01-15T08:37:05;13.17;;;8.40;;
71091;SDS011;58751;50.708;7.134;2024-01-15T08:39:31;15.02;;;7.38;;
71091;SDS011;58751;50.708;7.134;2024-01-15T08:41:56;12.47;;;8.90;;
71091;SDS011;58751;50.708;7.134;2024-01-15T08:44:22;14.30;;;8.50;;
71091;SDS011;58751;50.708;7.134;2024-01-15T08:46:47;12.30;;;8.17;;
71091;SDS011;58751;50.708;7.134;2024-01-15T08:49:13;11.73;;;7.33;;
71091;SDS011;58751;50.708;7.134;2024-01-15T08:51:38;11.30;;;7.93;;
71091;SDS011;58751;50.708;7.134;2024-01-15T08:54:05;12.20;;;9.07;;
71091;SDS011;58751;50.708;7.134;2024-01-15T08:56:30;12.10;;;7.90;;
71091;SDS011;58751;50.708;7.134;2024-01-15T08:58:56;11.83;;;7.63;;
71091;SDS011;58751;50.708;7.134;2024-01-15T09:01:21;14.53;;;8.63;;
71091;SDS011;58751;50.708;7.134;2024-01-15T09:03:46;11.77;;;8.00;;
71091;SDS011;58751;50.708;7.134;2024-01-15T09:06:12;12.83;;;8.17;;
71091;SDS011;58751;50.708;7.134;2024-01-15T09:08:37;13.90;;;7.33;;
71091;SDS011;58751;50.708;7.134;2024-01-15T09:11:04;10.87;;;8.00;;
71091;SDS011;58751;50.708;7.134;2024-01-15T09:13:29;14.43;;;7.85;;
71091;SDS011;58751;50.708;7.134;2024-01-15T09:15:55;10.77;;;7.30;;
71091;SDS011;58751;50.708;7.134;2024-01-15T09:18:20;14.50;;;8.10;;
71091;SDS011;58751;50.708;7.134;2024-01-15T09:20:46;12.90;;;7.70;;
71091;SDS011;58751;50.708;7.134;2024-01-15T09:23:11;12.57;;;7.63;;
71091;SDS011;58751;50.708;7.134;2024-01-15T09:25:36;11.50;;;7.33;;
71091;SDS011;58751;50.708;7.134;2024-01-15T09:28:03;13.00;;;9.00;;
71091;SDS011;58751;50.708;7.134;2024-01-15T09:30:29;11.77;;;8.52;;
71091;SDS011;58751;50.708;7.134;2024-01-15T09:32:54;12.73;;;7.83;;
71091;SDS011;58751;50.708;7.134;2024-01-15T09:35:20;11.43;;;7.70;;
71091;SDS011;58751;50.708;7.134;2024-01-15T09:37:45;11.87;;;7.90;;
71091;SDS011;58751;50.708;7.134;2024-01-15T09:40:12;14.40;;;8.43;;
71091;SDS011;58751;50.708;7.134;2024-01-15T09:42:38;13.07;;;7.80;;
71091;SDS011;58751;50.708;7.134;2024-01-15T09:45:05;13.03;;;8.00;;
71091;SDS011;58751;50.708;7.134;2024-01-15T09:47:31;10.93;;;6.75;;
71091;SDS011;58751;50.708;7.134;2024-01-15T09:49:57;10.57;;;7.83;;
71091;SDS011;58751;50.708;7.134;2024-01-15T09:52:22;14.03;;;8.20;;
71091;SDS011;58751;50.708;7.134;2024-01-15T09:54:48;10.13;;;7.87;;
71091;SDS011;58751;50.708;7.134;2024-01-15T09:57:14;9.95;;;7.90;;
71091;SDS011;58751;50.708;7.134;2024-01-15T09:59:39;10.13;;;7.20;;
71091;SDS011;58751;50.708;7.134;2024-01-15T10:02:08;10.35;;;6.82;;
71091;SDS011;58751;50.708;7.134;2024-01-15T10:04:34;15.90;;;8.40;;
71091;SDS011;58751;50.708;7.134;2024-01-15T10:07:00;11.10;;;7.27;;
71091;SDS011;58751;50.708;7.134;2024-01-15T10:09:26;15.10;;;6.67;;
71091;SDS011;58751;50.708;7.134;2024-01-15T10:11:51;7.37;;;6.57;;
71091;SDS011;58751;50.708;7.134;2024-01-15T10:14:17;11.70;;;7.33;;
71091;SDS011;58751;50.708;7.134;2024-01-15T10:16:42;8.50;;;6.90;;
71091;SDS011;58751;50.708;7.134;2024-01-15T10:19:09;9.37;;;6.43;;
71091;SDS011;58751;50.708;7.134;2024-01-15T10:21:35;12.48;;;6.47;;
71091;SDS011;58751;50.708;7.134;2024-01-15T10:24:01;6.60;;;5.90;;
71091;SDS011;58751;50.708;7.134;2024-01-15T10:26:27;8.68;;;5.60;;
71091;SDS011;58751;50.708;7.134;2024-01-15T10:28:52;10.67;;;7.07;;
71091;SDS011;58751;50.708;7.134;2024-01-15T10:31:17;9.93;;;6.90;;
71091;SDS011;58751;50.708;7.134;2024-01-15T10:33:43;11.33;;;7.03;;
71091;SDS011;58751;50.708;7.134;2024-01-15T10:36:10;7.97;;;5.93;;
71091;SDS011;58751;50.708;7.134;2024-01-15T10:38:35;9.18;;;6.30;;
71091;SDS011;58751;50.708;7.134;2024-01-15T10:41:02;9.77;;;7.68;;
71091;SDS011;58751;50.708;7.134;2024-01-15T10:43:28;9.53;;;7.00;;
71091;SDS011;58751;50.708;7.134;2024-01-15T10:45:53;9.70;;;7.27;;
71091;SDS011;58751;50.708;7.134;2024-01-15T10:48:19;9.63;;;8.20;;
71091;SDS011;58751;50.708;7.134;2024-01-15T10:50:44;13.40;;;8.20;;
71091;SDS011;58751;50.708;7.134;2024-01-15T10:53:12;10.57;;;6.88;;
71091;SDS011;58751;50.708;7.134;2024-01-15T10:55:38;8.60;;;7.60;;
71091;SDS011;58751;50.708;7.134;2024-01-15T10:58:04;8.98;;;6.60;;
71091;SDS011;58751;50.708;7.134;2024-01-15T11:00:29;11.70;;;7.83;;
71091;SDS011;58751;50.708;7.134;2024-01-15T11:02:55;10.90;;;6.40;;
71091;SDS011;58751;50.708;7.134;2024-01-15T11:05:20;9.47;;;7.30;;
71091;SDS011;58751;50.708;7.134;2024-01-15T11:07:46;15.23;;;7.10;;
71091;SDS011;58751;50.708;7.134;2024-01-15T11:13:07;8.20;;;6.70;;
71091;SDS011;58751;50.708;7.134;2024-01-15T11:15:35;5.82;;;4.78;;
71091;SDS011;58751;50.708;7.134;2024-01-15T11:18:19;8.50;;;4.95;;
71091;SDS011;58751;50.708;7.134;2024-01-15T11:23:44;5.45;;;4.85;;
71091;SDS011;58751;50.708;7.134;2024-01-15T11:28:58;8.75;;;6.05;;
71091;SDS011;58751;50.708;7.134;2024-01-15T11:31:26;7.32;;;6.32;;
71091;SDS011;58751;50.708;7.134;2024-01-15T11:33:52;9.63;;;6.90;;
71091;SDS011;58751;50.708;7.134;2024-01-15T11:36:18;8.70;;;6.73;;
71091;SDS011;58751;50.708;7.134;2024-01-15T11:38:43;8.60;;;6.73;;
71091;SDS011;58751;50.708;7.134;2024-01-15T11:41:13;7.77;;;6.97;;
71091;SDS011;58751;50.708;7.134;2024-01-15T11:43:40;10.77;;;6.10;;
71091;SDS011;58751;50.708;7.134;2024-01-15T11:46:05;9.40;;;7.90;;
71091;SDS011;58751;50.708;7.134;2024-01-15T11:48:40;8.82;;;7.82;;
71091;SDS011;58751;50.708;7.134;2024-01-15T11:51:08;8.40;;;7.07;;
71091;SDS011;58751;50.708;7.134;2024-01-15T11:53:36;9.85;;;8.10;;
71091;SDS011;58751;50.708;7.134;2024-01-15T11:56:10;8.95;;;7.00;;
71091;SDS011;58751;50.708;7.134;2024-01-15T11:58:40;8.10;;;7.22;;
71091;SDS011;58751;50.708;7.134;2024-01-15T12:01:05;11.65;;;7.47;;
71091;SDS011;58751;50.708;7.134;2024-01-15T12:03:31;9.47;;;7.67;;
71091;SDS011;58751;50.708;7.134;2024-01-15T12:05:58;8.60;;;7.55;;
71091;SDS011;58751;50.708;7.134;2024-01-15T12:08:23;9.77;;;8.67;;
71091;SDS011;58751;50.708;7.134;2024-01-15T12:10:49;10.97;;;8.53;;
71091;SDS011;58751;50.708;7.134;2024-01-15T12:13:14;9.03;;;7.77;;
71091;SDS011;58751;50.708;7.134;2024-01-15T12:15:42;8.48;;;6.75;;
71091;SDS011;58751;50.708;7.134;2024-01-15T12:18:11;10.70;;;8.10;;
71091;SDS011;58751;50.708;7.134;2024-01-15T12:20:37;8.25;;;7.13;;
71091;SDS011;58751;50.708;7.134;2024-01-15T12:23:04;11.98;;;7.80;;
71091;SDS011;58751;50.708;7.134;2024-01-15T12:25:31;11.02;;;7.70;;
71091;SDS011;58751;50.708;7.134;2024-01-15T12:27:58;15.25;;;8.50;;
71091;SDS011;58751;50.708;7.134;2024-01-15T12:30:25;11.05;;;8.25;;
71091;SDS011;58751;50.708;7.134;2024-01-15T12:32:52;9.23;;;7.97;;
71091;SDS011;58751;50.708;7.134;2024-01-15T12:35:18;8.55;;;7.68;;
71091;SDS011;58751;50.708;7.134;2024-01-15T12:37:43;10.77;;;8.50;;
71091;SDS011;58751;50.708;7.134;2024-01-15T12:40:09;10.83;;;6.20;;
71091;SDS011;58751;50.708;7.134;2024-01-15T12:42:35;8.18;;;7.32;;
71091;SDS011;58751;50.708;7.134;2024-01-15T12:45:01;12.10;;;7.37;;
71091;SDS011;58751;50.708;7.134;2024-01-15T12:47:27;10.20;;;7.10;;
71091;SDS011;58751;50.708;7.134;2024-01-15T12:49:53;9.23;;;7.27;;
71091;SDS011;58751;50.708;7.134;2024-01-15T12:52:19;11.35;;;6.00;;
71091;SDS011;58751;50.708;7.134;2024-01-15T12:54:45;8.47;;;6.77;;
71091;SDS011;58751;50.708;7.134;2024-01-15T12:57:10;13.67;;;7.30;;
71091;SDS011;58751;50.708;7.134;2024-01-15T12:59:36;8.83;;;6.33;;
71091;SDS011;58751;50.708;7.134;2024-01-15T13:02:01;12.27;;;5.80;;
71091;SDS011;58751;50.708;7.134;2024-01-15T13:04:26;7.20;;;5.43;;
71091;SDS011;58751;50.708;7.134;2024-01-15T13:06:53;9.63;;;6.03;;
71091;SDS011;58751;50.708;7.134;2024-01-15T13:09:19;6.97;;;6.05;;
71091;SDS011;58751;50.708;7.134;2024-01-15T13:11:44;7.40;;;5.77;;
71091;SDS011;58751;50.708;7.134;2024-01-15T13:14:10;7.20;;;6.10;;
71091;SDS011;58751;50.708;7.134;2024-01-15T13:16:35;11.80;;;5.30;;
71091;SDS011;58751;50.708;7.134;2024-01-15T13:19:00;12.07;;;6.00;;
71091;SDS011;58751;50.708;7.134;2024-01-15T13:21:26;7.67;;;5.37;;
71091;SDS011;58751;50.708;7.134;2024-01-15T13:23:53;8.10;;;6.43;;
71091;SDS011;58751;50.708;7.134;2024-01-15T13:26:18;9.73;;;5.25;;
71091;SDS011;58751;50.708;7.134;2024-01-15T13:28:43;6.47;;;5.03;;
71091;SDS011;58751;50.708;7.134;2024-01-15T13:31:09;9.03;;;5.00;;
71091;SDS011;58751;50.708;7.134;2024-01-15T13:33:34;8.43;;;5.70;;
71091;SDS011;58751;50.708;7.134;2024-01-15T13:36:00;11.13;;;5.10;;
71091;SDS011;58751;50.708;7.134;2024-01-15T13:38:25;9.77;;;4.03;;
71091;SDS011;58751;50.708;7.134;2024-01-15T13:40:52;5.57;;;3.87;;
71091;SDS011;58751;50.708;7.134;2024-01-15T13:43:17;9.48;;;4.45;;
71091;SDS011;58751;50.708;7.134;2024-01-15T13:45:43;4.53;;;3.83;;
71091;SDS011;58751;50.708;7.134;2024-01-15T13:48:08;4.60;;;4.20;;
71091;SDS011;58751;50.708;7.134;2024-01-15T13:50:34;4.90;;;4.50;;
71091;SDS011;58751;50.708;7.134;2024-01-15T13:52:59;5.03;;;3.77;;
71091;SDS011;58751;50.708;7.134;2024-01-15T13:55:24;8.83;;;4.70;;
71091;SDS011;58751;50.708;7.134;2024-01-15T13:57:51;10.60;;;5.53;;
71091;SDS011;58751;50.708;7.134;2024-01-15T14:00:17;9.30;;;4.47;;
71091;SDS011;58751;50.708;7.134;2024-01-15T14:02:42;7.33;;;4.23;;
71091;SDS011;58751;50.708;7.134;2024-01-15T14:05:08;9.03;;;4.43;;
71091;SDS011;58751;50.708;7.134;2024-01-15T14:07:33;6.40;;;3.90;;
71091;SDS011;58751;50.708;7.134;2024-01-15T14:09:59;7.30;;;4.50;;
71091;SDS011;58751;50.708;7.134;2024-01-15T14:12:24;7.60;;;4.13;;
71091;SDS011;58751;50.708;7.134;2024-01-15T14:14:51;4.90;;;4.20;;
71091;SDS011;58751;50.708;7.134;2024-01-15T14:17:16;4.85;;;4.38;;
71091;SDS011;58751;50.708;7.134;2024-01-15T14:19:42;6.60;;;4.43;;
71091;SDS011;58751;50.708;7.134;2024-01-15T14:22:07;12.93;;;4.80;;
71091;SDS011;58751;50.708;7.134;2024-01-15T14:24:33;8.10;;;5.03;;
71091;SDS011;58751;50.708;7.134;2024-01-15T14:26:58;4.93;;;4.53;;
71091;SDS011;58751;50.708;7.134;2024-01-15T14:29:23;6.30;;;4.10;;
71091;SDS011;58751;50.708;7.134;2024-01-15T14:31:50;5.80;;;4.10;;